sensor_id;sensor_type;location;lat;lon;timestamp;temperature;humidity
3705;DHT22;1868;48.918;9.438;2022-08-05T00:01:30;23.10;88.10
3705;DHT22;1868;48.918;9.438;2022-08-05T00:04:03;23.10;88.20
3705;DHT22;1868;48.918;9.438;2022-08-05T00:06:34;23.10;88.80
3705;DHT22;1868;48.918;9.438;2022-08-05T00:09:04;23.10;88.80
3705;DHT22;1868;48.918;9.438;2022-08-05T00:11:41;23.10;90.40
3705;DHT22;1868;48.918;9.438;2022-08-05T00:14:21;23.00;90.80
3705;DHT22;1868;48.918;9.438;2022-08-05T00:16:55;23.00;90.50
3705;DHT22;1868;48.918;9.438;2022-08-05T00:19:24;22.90;90.10
3705;DHT22;1868;48.918;9.438;2022-08-05T00:22:06;22.90;89.90
3705;DHT22;1868;48.918;9.438;2022-08-05T00:24:38;23.00;90.80
3705;DHT22;1868;48.918;9.438;2022-08-05T00:27:09;23.00;91.40
3705;DHT22;1868;48.918;9.438;2022-08-05T00:29:57;23.10;91.60
3705;DHT22;1868;48.918;9.438;2022-08-05T00:32:29;23.10;91.90
3705;DHT22;1868;48.918;9.438;2022-08-05T00:35:01;23.00;92.00
3705;DHT22;1868;48.918;9.438;2022-08-05T00:37:33;23.00;91.20
3705;DHT22;1868;48.918;9.438;2022-08-05T00:40:22;23.00;91.00
3705;DHT22;1868;48.918;9.438;2022-08-05T00:42:55;23.10;90.40
3705;DHT22;1868;48.918;9.438;2022-08-05T00:45:26;23.10;89.40
3705;DHT22;1868;48.918;9.438;2022-08-05T00:48:06;23.00;89.70
3705;DHT22;1868;48.918;9.438;2022-08-05T00:50:36;23.00;90.50
3705;DHT22;1868;48.918;9.438;2022-08-05T00:53:09;22.90;89.70
3705;DHT22;1868;48.918;9.438;2022-08-05T00:55:59;23.00;91.00
3705;DHT22;1868;48.918;9.438;2022-08-05T00:58:28;23.10;90.10
3705;DHT22;1868;48.918;9.438;2022-08-05T01:00:56;23.10;89.90
3705;DHT22;1868;48.918;9.438;2022-08-05T01:03:25;23.00;90.80
3705;DHT22;1868;48.918;9.438;2022-08-05T01:05:59;23.00;89.70
3705;DHT22;1868;48.918;9.438;2022-08-05T01:08:31;22.90;91.40
3705;DHT22;1868;48.918;9.438;2022-08-05T01:11:15;22.90;91.70
3705;DHT22;1868;48.918;9.438;2022-08-05T01:14:03;22.90;90.90
3705;DHT22;1868;48.918;9.438;2022-08-05T01:16:42;22.90;90.80
3705;DHT22;1868;48.918;9.438;2022-08-05T01:19:25;22.90;90.80
3705;DHT22;1868;48.918;9.438;2022-08-05T01:22:36;22.80;90.50
3705;DHT22;1868;48.918;9.438;2022-08-05T01:25:45;22.80;90.10
3705;DHT22;1868;48.918;9.438;2022-08-05T01:28:37;22.80;90.10
3705;DHT22;1868;48.918;9.438;2022-08-05T01:31:21;22.70;91.20
3705;DHT22;1868;48.918;9.438;2022-08-05T01:33:58;22.70;91.20
3705;DHT22;1868;48.918;9.438;2022-08-05T01:36:32;22.60;91.60
3705;DHT22;1868;48.918;9.438;2022-08-05T01:39:09;22.60;90.90
3705;DHT22;1868;48.918;9.438;2022-08-05T01:41:40;22.60;91.40
3705;DHT22;1868;48.918;9.438;2022-08-05T01:44:12;22.50;91.50
3705;DHT22;1868;48.918;9.438;2022-08-05T01:46:43;22.60;91.10
3705;DHT22;1868;48.918;9.438;2022-08-05T01:49:17;22.60;90.80
3705;DHT22;1868;48.918;9.438;2022-08-05T01:51:54;22.60;90.40
3705;DHT22;1868;48.918;9.438;2022-08-05T01:54:29;22.70;90.40
3705;DHT22;1868;48.918;9.438;2022-08-05T01:57:15;22.70;90.20
3705;DHT22;1868;48.918;9.438;2022-08-05T02:00:09;22.80;89.60
3705;DHT22;1868;48.918;9.438;2022-08-05T02:02:42;22.90;89.70
3705;DHT22;1868;48.918;9.438;2022-08-05T02:05:22;22.90;88.80
3705;DHT22;1868;48.918;9.438;2022-08-05T02:07:54;23.00;88.20
3705;DHT22;1868;48.918;9.438;2022-08-05T02:10:31;23.00;87.50
3705;DHT22;1868;48.918;9.438;2022-08-05T02:13:07;23.00;87.50
3705;DHT22;1868;48.918;9.438;2022-08-05T02:15:46;23.00;86.90
3705;DHT22;1868;48.918;9.438;2022-08-05T02:18:24;23.00;86.80
3705;DHT22;1868;48.918;9.438;2022-08-05T02:21:05;23.10;86.80
3705;DHT22;1868;48.918;9.438;2022-08-05T02:23:44;23.10;87.70
3705;DHT22;1868;48.918;9.438;2022-08-05T02:26:19;23.10;87.10
3705;DHT22;1868;48.918;9.438;2022-08-05T02:28:53;23.10;86.90
3705;DHT22;1868;48.918;9.438;2022-08-05T02:31:29;23.10;86.60
3705;DHT22;1868;48.918;9.438;2022-08-05T02:34:04;23.10;87.30
3705;DHT22;1868;48.918;9.438;2022-08-05T02:36:43;23.10;87.10
3705;DHT22;1868;48.918;9.438;2022-08-05T02:39:17;23.10;87.30
3705;DHT22;1868;48.918;9.438;2022-08-05T02:41:47;23.20;86.90
3705;DHT22;1868;48.918;9.438;2022-08-05T02:44:27;23.20;86.80
3705;DHT22;1868;48.918;9.438;2022-08-05T02:46:59;23.10;86.80
3705;DHT22;1868;48.918;9.438;2022-08-05T02:49:31;23.10;86.80
3705;DHT22;1868;48.918;9.438;2022-08-05T02:52:08;23.10;86.90
3705;DHT22;1868;48.918;9.438;2022-08-05T02:54:55;23.10;87.90
3705;DHT22;1868;48.918;9.438;2022-08-05T02:57:28;23.00;89.00
3705;DHT22;1868;48.918;9.438;2022-08-05T03:00:17;22.90;89.70
3705;DHT22;1868;48.918;9.438;2022-08-05T03:02:47;22.80;90.10
3705;DHT22;1868;48.918;9.438;2022-08-05T03:05:17;22.80;89.70
3705;DHT22;1868;48.918;9.438;2022-08-05T03:08:07;22.90;89.40
3705;DHT22;1868;48.918;9.438;2022-08-05T03:10:37;23.00;89.40
3705;DHT22;1868;48.918;9.438;2022-08-05T03:13:12;23.00;89.00
3705;DHT22;1868;48.918;9.438;2022-08-05T03:15:43;22.90;89.70
3705;DHT22;1868;48.918;9.438;2022-08-05T03:18:13;22.80;89.60
3705;DHT22;1868;48.918;9.438;2022-08-05T03:20:43;22.80;89.90
3705;DHT22;1868;48.918;9.438;2022-08-05T03:23:14;22.70;90.40
3705;DHT22;1868;48.918;9.438;2022-08-05T03:25:43;22.70;90.20
3705;DHT22;1868;48.918;9.438;2022-08-05T03:28:31;22.80;90.10
3705;DHT22;1868;48.918;9.438;2022-08-05T03:31:01;22.70;90.30
3705;DHT22;1868;48.918;9.438;2022-08-05T03:33:32;22.70;91.30
3705;DHT22;1868;48.918;9.438;2022-08-05T03:36:19;22.70;90.90
3705;DHT22;1868;48.918;9.438;2022-08-05T03:38:56;22.70;91.10
3705;DHT22;1868;48.918;9.438;2022-08-05T03:41:26;22.80;90.90
3705;DHT22;1868;48.918;9.438;2022-08-05T03:44:11;22.80;90.50
3705;DHT22;1868;48.918;9.438;2022-08-05T03:46:45;22.80;90.80
3705;DHT22;1868;48.918;9.438;2022-08-05T03:49:15;22.80;90.80
3705;DHT22;1868;48.918;9.438;2022-08-05T03:51:49;22.70;90.70
3705;DHT22;1868;48.918;9.438;2022-08-05T03:54:47;22.70;91.10
3705;DHT22;1868;48.918;9.438;2022-08-05T03:57:39;22.60;90.90
3705;DHT22;1868;48.918;9.438;2022-08-05T04:00:12;22.60;90.90
3705;DHT22;1868;48.918;9.438;2022-08-05T04:02:45;22.60;91.20
3705;DHT22;1868;48.918;9.438;2022-08-05T04:05:30;22.60;91.50
3705;DHT22;1868;48.918;9.438;2022-08-05T04:08:02;22.60;91.40
3705;DHT22;1868;48.918;9.438;2022-08-05T04:10:52;22.60;91.10
3705;DHT22;1868;48.918;9.438;2022-08-05T04:13:22;22.60;91.00
3705;DHT22;1868;48.918;9.438;2022-08-05T04:15:50;22.60;90.80
3705;DHT22;1868;48.918;9.438;2022-08-05T04:18:30;22.50;91.30
3705;DHT22;1868;48.918;9.438;2022-08-05T04:21:02;22.50;92.00
3705;DHT22;1868;48.918;9.438;2022-08-05T04:23:33;22.40;92.50
3705;DHT22;1868;48.918;9.438;2022-08-05T04:26:22;22.40;91.70
3705;DHT22;1868;48.918;9.438;2022-08-05T04:28:50;22.30;92.50
3705;DHT22;1868;48.918;9.438;2022-08-05T04:31:19;22.30;92.60
3705;DHT22;1868;48.918;9.438;2022-08-05T04:33:53;22.20;92.80
3705;DHT22;1868;48.918;9.438;2022-08-05T04:36:42;22.10;93.20
3705;DHT22;1868;48.918;9.438;2022-08-05T04:39:16;22.00;93.60
3705;DHT22;1868;48.918;9.438;2022-08-05T04:41:45;22.00;93.80
3705;DHT22;1868;48.918;9.438;2022-08-05T04:44:14;22.10;94.50
3705;DHT22;1868;48.918;9.438;2022-08-05T04:46:55;22.10;94.50
3705;DHT22;1868;48.918;9.438;2022-08-05T04:49:24;22.10;94.40
3705;DHT22;1868;48.918;9.438;2022-08-05T04:52:14;22.20;94.40
3705;DHT22;1868;48.918;9.438;2022-08-05T04:54:44;22.20;94.50
3705;DHT22;1868;48.918;9.438;2022-08-05T04:57:15;22.20;94.60
3705;DHT22;1868;48.918;9.438;2022-08-05T04:59:43;22.30;93.90
3705;DHT22;1868;48.918;9.438;2022-08-05T05:02:14;22.30;94.80
3705;DHT22;1868;48.918;9.438;2022-08-05T05:05:03;22.20;95.10
3705;DHT22;1868;48.918;9.438;2022-08-05T05:07:53;22.20;94.90
3705;DHT22;1868;48.918;9.438;2022-08-05T05:10:28;22.20;95.00
3705;DHT22;1868;48.918;9.438;2022-08-05T05:12:59;22.20;95.00
3705;DHT22;1868;48.918;9.438;2022-08-05T05:15:30;22.20;95.10
3705;DHT22;1868;48.918;9.438;2022-08-05T05:18:20;22.30;95.10
3705;DHT22;1868;48.918;9.438;2022-08-05T05:20:59;22.30;95.10
3705;DHT22;1868;48.918;9.438;2022-08-05T05:23:28;22.40;95.30
3705;DHT22;1868;48.918;9.438;2022-08-05T05:26:17;22.50;94.70
3705;DHT22;1868;48.918;9.438;2022-08-05T05:28:54;22.60;94.70
3705;DHT22;1868;48.918;9.438;2022-08-05T05:31:23;22.70;94.60
3705;DHT22;1868;48.918;9.438;2022-08-05T05:33:57;22.80;94.30
3705;DHT22;1868;48.918;9.438;2022-08-05T05:36:29;22.90;94.30
3705;DHT22;1868;48.918;9.438;2022-08-05T05:38:59;23.00;94.20
3705;DHT22;1868;48.918;9.438;2022-08-05T05:41:30;23.10;94.00
3705;DHT22;1868;48.918;9.438;2022-08-05T05:44:08;23.20;93.80
3705;DHT22;1868;48.918;9.438;2022-08-05T05:46:56;23.40;93.60
3705;DHT22;1868;48.918;9.438;2022-08-05T05:49:30;23.50;93.40
3705;DHT22;1868;48.918;9.438;2022-08-05T05:51:59;23.60;93.00
3705;DHT22;1868;48.918;9.438;2022-08-05T05:54:34;23.70;93.30
3705;DHT22;1868;48.918;9.438;2022-08-05T05:57:17;23.90;92.40
3705;DHT22;1868;48.918;9.438;2022-08-05T05:59:46;24.00;92.80
3705;DHT22;1868;48.918;9.438;2022-08-05T06:02:15;24.10;92.00
3705;DHT22;1868;48.918;9.438;2022-08-05T06:04:58;24.30;92.10
3705;DHT22;1868;48.918;9.438;2022-08-05T06:07:36;24.50;91.30
3705;DHT22;1868;48.918;9.438;2022-08-05T06:10:10;24.60;91.10
3705;DHT22;1868;48.918;9.438;2022-08-05T06:12:41;24.80;90.70
3705;DHT22;1868;48.918;9.438;2022-08-05T06:15:11;25.00;90.10
3705;DHT22;1868;48.918;9.438;2022-08-05T06:17:50;25.20;89.90
3705;DHT22;1868;48.918;9.438;2022-08-05T06:20:20;25.30;88.60
3705;DHT22;1868;48.918;9.438;2022-08-05T06:22:49;25.50;87.10
3705;DHT22;1868;48.918;9.438;2022-08-05T06:25:19;25.60;86.90
3705;DHT22;1868;48.918;9.438;2022-08-05T06:28:07;25.80;85.80
3705;DHT22;1868;48.918;9.438;2022-08-05T06:30:46;25.90;85.10
3705;DHT22;1868;48.918;9.438;2022-08-05T06:33:15;26.10;84.70
3705;DHT22;1868;48.918;9.438;2022-08-05T06:36:07;26.20;83.60
3705;DHT22;1868;48.918;9.438;2022-08-05T06:38:36;26.40;82.80
3705;DHT22;1868;48.918;9.438;2022-08-05T06:41:14;26.60;81.70
3705;DHT22;1868;48.918;9.438;2022-08-05T06:43:48;26.70;79.90
3705;DHT22;1868;48.918;9.438;2022-08-05T06:46:26;26.80;79.50
3705;DHT22;1868;48.918;9.438;2022-08-05T06:48:58;26.90;78.90
3705;DHT22;1868;48.918;9.438;2022-08-05T06:51:31;27.00;77.80
3705;DHT22;1868;48.918;9.438;2022-08-05T06:54:02;27.20;75.90
3705;DHT22;1868;48.918;9.438;2022-08-05T06:56:35;27.20;75.80
3705;DHT22;1868;48.918;9.438;2022-08-05T06:59:04;27.30;75.00
3705;DHT22;1868;48.918;9.438;2022-08-05T07:01:35;27.40;73.90
3705;DHT22;1868;48.918;9.438;2022-08-05T07:04:08;27.40;73.20
3705;DHT22;1868;48.918;9.438;2022-08-05T07:06:40;27.50;72.40
3705;DHT22;1868;48.918;9.438;2022-08-05T07:09:08;27.60;72.60
3705;DHT22;1868;48.918;9.438;2022-08-05T07:11:38;27.80;71.70
3705;DHT22;1868;48.918;9.438;2022-08-05T07:14:07;27.90;70.50
3705;DHT22;1868;48.918;9.438;2022-08-05T07:16:56;28.00;70.00
3705;DHT22;1868;48.918;9.438;2022-08-05T07:19:48;28.20;69.40
3705;DHT22;1868;48.918;9.438;2022-08-05T07:22:38;28.30;68.50
3705;DHT22;1868;48.918;9.438;2022-08-05T07:25:08;28.30;67.90
3705;DHT22;1868;48.918;9.438;2022-08-05T07:27:58;28.50;67.60
3705;DHT22;1868;48.918;9.438;2022-08-05T07:30:36;28.50;67.00
3705;DHT22;1868;48.918;9.438;2022-08-05T07:33:07;28.60;66.40
3705;DHT22;1868;48.918;9.438;2022-08-05T07:35:43;28.80;65.70
3705;DHT22;1868;48.918;9.438;2022-08-05T07:38:32;28.80;64.20
3705;DHT22;1868;48.918;9.438;2022-08-05T07:41:13;28.80;64.00
3705;DHT22;1868;48.918;9.438;2022-08-05T07:44:06;28.80;64.20
3705;DHT22;1868;48.918;9.438;2022-08-05T07:46:44;28.80;64.60
3705;DHT22;1868;48.918;9.438;2022-08-05T07:49:15;28.90;64.20
3705;DHT22;1868;48.918;9.438;2022-08-05T07:51:45;29.00;63.70
3705;DHT22;1868;48.918;9.438;2022-08-05T07:54:21;29.00;64.20
3705;DHT22;1868;48.918;9.438;2022-08-05T07:56:59;29.00;62.20
3705;DHT22;1868;48.918;9.438;2022-08-05T07:59:50;29.10;62.30
3705;DHT22;1868;48.918;9.438;2022-08-05T08:02:23;29.20;61.80
3705;DHT22;1868;48.918;9.438;2022-08-05T08:04:58;29.40;60.70
3705;DHT22;1868;48.918;9.438;2022-08-05T08:07:27;29.50;60.90
3705;DHT22;1868;48.918;9.438;2022-08-05T08:10:15;29.60;60.30
3705;DHT22;1868;48.918;9.438;2022-08-05T08:12:46;29.80;57.40
3705;DHT22;1868;48.918;9.438;2022-08-05T08:15:17;29.80;57.80
3705;DHT22;1868;48.918;9.438;2022-08-05T08:18:05;30.00;59.00
3705;DHT22;1868;48.918;9.438;2022-08-05T08:20:40;30.10;58.00
3705;DHT22;1868;48.918;9.438;2022-08-05T08:23:28;30.30;57.40
3705;DHT22;1868;48.918;9.438;2022-08-05T08:26:17;30.40;56.40
3705;DHT22;1868;48.918;9.438;2022-08-05T08:28:56;30.50;54.80
3705;DHT22;1868;48.918;9.438;2022-08-05T08:31:46;30.70;51.70
3705;DHT22;1868;48.918;9.438;2022-08-05T08:34:15;30.90;50.30
3705;DHT22;1868;48.918;9.438;2022-08-05T08:36:58;31.00;50.70
3705;DHT22;1868;48.918;9.438;2022-08-05T08:39:31;31.20;49.40
3705;DHT22;1868;48.918;9.438;2022-08-05T08:42:04;31.40;49.90
3705;DHT22;1868;48.918;9.438;2022-08-05T08:44:54;31.60;48.80
3705;DHT22;1868;48.918;9.438;2022-08-05T08:47:45;31.90;49.70
3705;DHT22;1868;48.918;9.438;2022-08-05T08:50:36;32.20;48.20
3705;DHT22;1868;48.918;9.438;2022-08-05T08:53:27;32.40;45.30
3705;DHT22;1868;48.918;9.438;2022-08-05T08:56:01;32.50;45.50
3705;DHT22;1868;48.918;9.438;2022-08-05T08:58:32;32.60;45.60
3705;DHT22;1868;48.918;9.438;2022-08-05T09:01:10;32.80;44.70
3705;DHT22;1868;48.918;9.438;2022-08-05T09:03:46;33.20;44.30
3705;DHT22;1868;48.918;9.438;2022-08-05T09:06:21;33.70;44.70
3705;DHT22;1868;48.918;9.438;2022-08-05T09:08:57;34.20;40.90
3705;DHT22;1868;48.918;9.438;2022-08-05T09:11:27;34.70;39.40
3705;DHT22;1868;48.918;9.438;2022-08-05T09:14:15;35.10;39.20
3705;DHT22;1868;48.918;9.438;2022-08-05T09:17:06;35.60;37.30
3705;DHT22;1868;48.918;9.438;2022-08-05T09:19:58;35.90;36.50
3705;DHT22;1868;48.918;9.438;2022-08-05T09:23:06;36.40;36.30
3705;DHT22;1868;48.918;9.438;2022-08-05T09:25:49;36.80;33.40
3705;DHT22;1868;48.918;9.438;2022-08-05T09:28:30;37.20;34.10
3705;DHT22;1868;48.918;9.438;2022-08-05T09:31:02;37.70;34.20
3705;DHT22;1868;48.918;9.438;2022-08-05T09:33:53;38.20;33.00
3705;DHT22;1868;48.918;9.438;2022-08-05T09:36:38;38.60;31.00
3705;DHT22;1868;48.918;9.438;2022-08-05T09:39:25;39.10;29.90
3705;DHT22;1868;48.918;9.438;2022-08-05T09:42:12;39.50;29.20
3705;DHT22;1868;48.918;9.438;2022-08-05T09:44:51;39.70;29.00
3705;DHT22;1868;48.918;9.438;2022-08-05T09:47:25;39.90;28.80
3705;DHT22;1868;48.918;9.438;2022-08-05T09:50:18;40.10;28.60
3705;DHT22;1868;48.918;9.438;2022-08-05T09:53:05;40.50;27.80
3705;DHT22;1868;48.918;9.438;2022-08-05T09:55:38;40.30;27.90
3705;DHT22;1868;48.918;9.438;2022-08-05T09:58:26;40.70;26.80
3705;DHT22;1868;48.918;9.438;2022-08-05T10:00:58;41.00;26.80
3705;DHT22;1868;48.918;9.438;2022-08-05T10:03:39;41.40;27.10
3705;DHT22;1868;48.918;9.438;2022-08-05T10:06:26;41.00;25.60
3705;DHT22;1868;48.918;9.438;2022-08-05T10:09:09;40.90;27.30
3705;DHT22;1868;48.918;9.438;2022-08-05T10:12:06;41.00;27.80
3705;DHT22;1868;48.918;9.438;2022-08-05T10:15:13;40.90;27.80
3705;DHT22;1868;48.918;9.438;2022-08-05T10:18:08;40.20;27.30
3705;DHT22;1868;48.918;9.438;2022-08-05T10:20:41;40.30;25.50
3705;DHT22;1868;48.918;9.438;2022-08-05T10:23:17;40.90;25.40
3705;DHT22;1868;48.918;9.438;2022-08-05T10:26:09;41.10;27.30
3705;DHT22;1868;48.918;9.438;2022-08-05T10:28:41;41.90;25.30
3705;DHT22;1868;48.918;9.438;2022-08-05T10:31:12;42.00;24.50
3705;DHT22;1868;48.918;9.438;2022-08-05T10:34:02;42.30;24.00
3705;DHT22;1868;48.918;9.438;2022-08-05T10:36:35;41.30;24.20
3705;DHT22;1868;48.918;9.438;2022-08-05T10:39:09;41.10;24.60
3705;DHT22;1868;48.918;9.438;2022-08-05T10:41:58;41.30;24.80
3705;DHT22;1868;48.918;9.438;2022-08-05T10:44:31;41.50;25.90
3705;DHT22;1868;48.918;9.438;2022-08-05T10:47:09;42.20;23.40
3705;DHT22;1868;48.918;9.438;2022-08-05T10:50:02;42.00;23.40
3705;DHT22;1868;48.918;9.438;2022-08-05T10:52:55;42.20;23.70
3705;DHT22;1868;48.918;9.438;2022-08-05T10:55:25;42.10;23.30
3705;DHT22;1868;48.918;9.438;2022-08-05T10:58:07;42.00;23.80
3705;DHT22;1868;48.918;9.438;2022-08-05T11:00:37;42.60;23.40
3705;DHT22;1868;48.918;9.438;2022-08-05T11:03:13;43.00;23.20
3705;DHT22;1868;48.918;9.438;2022-08-05T11:06:10;43.40;23.00
3705;DHT22;1868;48.918;9.438;2022-08-05T11:09:17;43.70;22.00
3705;DHT22;1868;48.918;9.438;2022-08-05T11:11:58;43.70;22.70
3705;DHT22;1868;48.918;9.438;2022-08-05T11:14:29;43.10;22.30
3705;DHT22;1868;48.918;9.438;2022-08-05T11:17:29;43.10;23.30
3705;DHT22;1868;48.918;9.438;2022-08-05T11:20:39;43.40;22.30
3705;DHT22;1868;48.918;9.438;2022-08-05T11:23:41;43.40;22.00
3705;DHT22;1868;48.918;9.438;2022-08-05T11:26:30;43.30;21.50
3705;DHT22;1868;48.918;9.438;2022-08-05T11:29:00;43.30;22.30
3705;DHT22;1868;48.918;9.438;2022-08-05T11:31:42;43.50;22.60
3705;DHT22;1868;48.918;9.438;2022-08-05T11:34:35;43.80;22.70
3705;DHT22;1868;48.918;9.438;2022-08-05T11:37:05;44.20;22.20
3705;DHT22;1868;48.918;9.438;2022-08-05T11:39:54;44.40;21.00
3705;DHT22;1868;48.918;9.438;2022-08-05T11:42:32;44.80;22.00
3705;DHT22;1868;48.918;9.438;2022-08-05T11:45:07;45.10;21.00
3705;DHT22;1868;48.918;9.438;2022-08-05T11:47:57;45.10;21.30
3705;DHT22;1868;48.918;9.438;2022-08-05T11:50:26;45.10;21.00
3705;DHT22;1868;48.918;9.438;2022-08-05T11:52:55;44.80;20.70
3705;DHT22;1868;48.918;9.438;2022-08-05T11:55:24;44.40;21.90
3705;DHT22;1868;48.918;9.438;2022-08-05T11:58:02;45.10;21.60
3705;DHT22;1868;48.918;9.438;2022-08-05T12:00:37;45.40;21.00
3705;DHT22;1868;48.918;9.438;2022-08-05T12:03:18;45.70;20.90
3705;DHT22;1868;48.918;9.438;2022-08-05T12:06:00;46.00;20.50
3705;DHT22;1868;48.918;9.438;2022-08-05T12:08:42;46.30;19.60
3705;DHT22;1868;48.918;9.438;2022-08-05T12:11:19;46.10;21.20
3705;DHT22;1868;48.918;9.438;2022-08-05T12:13:55;46.10;19.60
3705;DHT22;1868;48.918;9.438;2022-08-05T12:16:32;46.10;20.60
3705;DHT22;1868;48.918;9.438;2022-08-05T12:19:07;46.20;20.60
3705;DHT22;1868;48.918;9.438;2022-08-05T12:21:56;46.00;18.90
3705;DHT22;1868;48.918;9.438;2022-08-05T12:24:27;44.90;19.40
3705;DHT22;1868;48.918;9.438;2022-08-05T12:26:56;44.80;21.10
3705;DHT22;1868;48.918;9.438;2022-08-05T12:29:25;44.80;20.50
3705;DHT22;1868;48.918;9.438;2022-08-05T12:32:05;44.70;20.60
3705;DHT22;1868;48.918;9.438;2022-08-05T12:34:37;44.80;21.00
3705;DHT22;1868;48.918;9.438;2022-08-05T12:37:07;44.80;20.30
3705;DHT22;1868;48.918;9.438;2022-08-05T12:39:49;43.80;20.70
3705;DHT22;1868;48.918;9.438;2022-08-05T12:42:20;44.20;21.00
3705;DHT22;1868;48.918;9.438;2022-08-05T12:44:51;44.60;21.60
3705;DHT22;1868;48.918;9.438;2022-08-05T12:47:26;44.50;19.80
3705;DHT22;1868;48.918;9.438;2022-08-05T12:49:58;44.20;21.00
3705;DHT22;1868;48.918;9.438;2022-08-05T12:52:32;44.10;21.50
3705;DHT22;1868;48.918;9.438;2022-08-05T12:55:19;44.50;21.30
3705;DHT22;1868;48.918;9.438;2022-08-05T12:57:52;44.50;21.40
3705;DHT22;1868;48.918;9.438;2022-08-05T13:00:43;44.60;21.10
3705;DHT22;1868;48.918;9.438;2022-08-05T13:03:34;44.20;21.80
3705;DHT22;1868;48.918;9.438;2022-08-05T13:06:14;43.50;21.90
3705;DHT22;1868;48.918;9.438;2022-08-05T13:08:46;42.70;22.40
3705;DHT22;1868;48.918;9.438;2022-08-05T13:11:19;42.50;22.90
3705;DHT22;1868;48.918;9.438;2022-08-05T13:14:10;42.90;23.60
3705;DHT22;1868;48.918;9.438;2022-08-05T13:16:52;43.20;22.90
3705;DHT22;1868;48.918;9.438;2022-08-05T13:19:24;43.00;22.60
3705;DHT22;1868;48.918;9.438;2022-08-05T13:22:14;43.10;22.00
3705;DHT22;1868;48.918;9.438;2022-08-05T13:24:56;42.40;21.70
3705;DHT22;1868;48.918;9.438;2022-08-05T13:27:32;42.30;22.50
3705;DHT22;1868;48.918;9.438;2022-08-05T13:30:06;41.80;22.90
3705;DHT22;1868;48.918;9.438;2022-08-05T13:32:55;42.10;23.40
3705;DHT22;1868;48.918;9.438;2022-08-05T13:35:27;42.50;22.20
3705;DHT22;1868;48.918;9.438;2022-08-05T13:38:17;42.50;22.50
3705;DHT22;1868;48.918;9.438;2022-08-05T13:41:04;42.70;22.00
3705;DHT22;1868;48.918;9.438;2022-08-05T13:43:33;42.50;22.90
3705;DHT22;1868;48.918;9.438;2022-08-05T13:46:21;42.60;22.30
3705;DHT22;1868;48.918;9.438;2022-08-05T13:49:09;42.80;21.70
3705;DHT22;1868;48.918;9.438;2022-08-05T13:51:39;42.80;22.10
3705;DHT22;1868;48.918;9.438;2022-08-05T13:54:14;42.40;21.90
3705;DHT22;1868;48.918;9.438;2022-08-05T13:56:51;42.30;22.70
3705;DHT22;1868;48.918;9.438;2022-08-05T13:59:21;42.30;23.10
3705;DHT22;1868;48.918;9.438;2022-08-05T14:01:53;42.20;23.50
3705;DHT22;1868;48.918;9.438;2022-08-05T14:04:28;41.80;22.90
3705;DHT22;1868;48.918;9.438;2022-08-05T14:07:19;41.10;24.20
3705;DHT22;1868;48.918;9.438;2022-08-05T14:10:11;40.70;24.40
3705;DHT22;1868;48.918;9.438;2022-08-05T14:12:53;40.40;24.90
3705;DHT22;1868;48.918;9.438;2022-08-05T14:15:23;40.00;25.10
3705;DHT22;1868;48.918;9.438;2022-08-05T14:18:12;39.90;25.70
3705;DHT22;1868;48.918;9.438;2022-08-05T14:20:48;39.80;25.80
3705;DHT22;1868;48.918;9.438;2022-08-05T14:23:21;39.20;26.00
3705;DHT22;1868;48.918;9.438;2022-08-05T14:25:53;38.60;26.90
3705;DHT22;1868;48.918;9.438;2022-08-05T14:28:25;38.10;27.20
3705;DHT22;1868;48.918;9.438;2022-08-05T14:30:54;37.70;27.80
3705;DHT22;1868;48.918;9.438;2022-08-05T14:33:23;37.20;28.10
3705;DHT22;1868;48.918;9.438;2022-08-05T14:35:51;36.90;28.60
3705;DHT22;1868;48.918;9.438;2022-08-05T14:38:21;36.50;29.50
3705;DHT22;1868;48.918;9.438;2022-08-05T14:41:02;36.00;30.40
3705;DHT22;1868;48.918;9.438;2022-08-05T14:43:34;35.50;32.10
3705;DHT22;1868;48.918;9.438;2022-08-05T14:46:25;35.30;33.00
3705;DHT22;1868;48.918;9.438;2022-08-05T14:48:58;34.90;33.10
3705;DHT22;1868;48.918;9.438;2022-08-05T14:51:33;34.50;33.90
3705;DHT22;1868;48.918;9.438;2022-08-05T14:54:03;34.20;34.80
3705;DHT22;1868;48.918;9.438;2022-08-05T14:56:53;34.00;35.70
3705;DHT22;1868;48.918;9.438;2022-08-05T14:59:22;33.70;38.30
3705;DHT22;1868;48.918;9.438;2022-08-05T15:01:50;33.50;40.30
3705;DHT22;1868;48.918;9.438;2022-08-05T15:04:20;33.20;40.60
3705;DHT22;1868;48.918;9.438;2022-08-05T15:06:53;32.90;42.40
3705;DHT22;1868;48.918;9.438;2022-08-05T15:09:21;32.60;43.30
3705;DHT22;1868;48.918;9.438;2022-08-05T15:12:11;32.40;43.60
3705;DHT22;1868;48.918;9.438;2022-08-05T15:14:43;32.20;44.90
3705;DHT22;1868;48.918;9.438;2022-08-05T15:17:17;31.90;45.60
3705;DHT22;1868;48.918;9.438;2022-08-05T15:20:07;31.70;47.20
3705;DHT22;1868;48.918;9.438;2022-08-05T15:22:46;31.50;47.60
3705;DHT22;1868;48.918;9.438;2022-08-05T15:25:21;31.40;49.00
3705;DHT22;1868;48.918;9.438;2022-08-05T15:28:12;31.20;48.50
3705;DHT22;1868;48.918;9.438;2022-08-05T15:30:42;31.10;50.20
3705;DHT22;1868;48.918;9.438;2022-08-05T15:33:12;31.00;50.30
3705;DHT22;1868;48.918;9.438;2022-08-05T15:36:02;30.90;51.30
3705;DHT22;1868;48.918;9.438;2022-08-05T15:38:31;30.80;51.10
3705;DHT22;1868;48.918;9.438;2022-08-05T15:41:07;30.70;52.50
3705;DHT22;1868;48.918;9.438;2022-08-05T15:43:51;30.70;52.60
3705;DHT22;1868;48.918;9.438;2022-08-05T15:46:21;30.80;52.60
3705;DHT22;1868;48.918;9.438;2022-08-05T15:48:51;31.00;52.30
3705;DHT22;1868;48.918;9.438;2022-08-05T15:51:35;31.10;52.80
3705;DHT22;1868;48.918;9.438;2022-08-05T15:54:24;31.20;54.00
3705;DHT22;1868;48.918;9.438;2022-08-05T15:57:01;31.30;54.60
3705;DHT22;1868;48.918;9.438;2022-08-05T15:59:35;31.10;54.00
3705;DHT22;1868;48.918;9.438;2022-08-05T16:02:04;31.00;52.90
3705;DHT22;1868;48.918;9.438;2022-08-05T16:04:41;30.90;53.40
3705;DHT22;1868;48.918;9.438;2022-08-05T16:07:10;30.90;53.20
3705;DHT22;1868;48.918;9.438;2022-08-05T16:09:39;30.90;53.50
3705;DHT22;1868;48.918;9.438;2022-08-05T16:12:09;30.80;53.50
3705;DHT22;1868;48.918;9.438;2022-08-05T16:14:39;30.80;53.20
3705;DHT22;1868;48.918;9.438;2022-08-05T16:17:09;30.80;53.40
3705;DHT22;1868;48.918;9.438;2022-08-05T16:19:38;30.80;53.10
3705;DHT22;1868;48.918;9.438;2022-08-05T16:22:28;30.70;53.10
3705;DHT22;1868;48.918;9.438;2022-08-05T16:25:00;30.70;53.90
3705;DHT22;1868;48.918;9.438;2022-08-05T16:27:36;30.70;54.60
3705;DHT22;1868;48.918;9.438;2022-08-05T16:30:26;30.70;54.50
3705;DHT22;1868;48.918;9.438;2022-08-05T16:32:57;30.60;54.30
3705;DHT22;1868;48.918;9.438;2022-08-05T16:35:27;30.60;54.60
3705;DHT22;1868;48.918;9.438;2022-08-05T16:37:59;30.50;55.10
3705;DHT22;1868;48.918;9.438;2022-08-05T16:40:47;30.40;55.10
3705;DHT22;1868;48.918;9.438;2022-08-05T16:43:22;30.40;55.70
3705;DHT22;1868;48.918;9.438;2022-08-05T16:45:53;30.30;55.10
3705;DHT22;1868;48.918;9.438;2022-08-05T16:48:36;30.20;55.70
3705;DHT22;1868;48.918;9.438;2022-08-05T16:51:05;30.00;56.00
3705;DHT22;1868;48.918;9.438;2022-08-05T16:53:37;29.90;56.30
3705;DHT22;1868;48.918;9.438;2022-08-05T16:56:30;29.80;56.10
3705;DHT22;1868;48.918;9.438;2022-08-05T16:59:01;29.80;57.00
3705;DHT22;1868;48.918;9.438;2022-08-05T17:01:37;29.70;57.20
3705;DHT22;1868;48.918;9.438;2022-08-05T17:04:20;29.60;56.70
3705;DHT22;1868;48.918;9.438;2022-08-05T17:06:52;29.60;57.20
3705;DHT22;1868;48.918;9.438;2022-08-05T17:09:26;29.50;56.40
3705;DHT22;1868;48.918;9.438;2022-08-05T17:11:55;29.40;56.90